createdAt,value
2022-10-17T00:01:09.073Z,101198.13
2022-10-17T00:03:46.897Z,101245.66
2022-10-17T00:06:52.106Z,101236.97
2022-10-17T00:10:42.063Z,101184.38
2022-10-17T00:25:53.743Z,101176.91
2022-10-17T00:28:55.752Z,101162.25
2022-10-17T00:32:33.522Z,101188.84
2022-10-17T00:35:13.465Z,101156.41
2022-10-17T00:37:56.126Z,101197.59
2022-10-17T00:40:51.456Z,101146.03
2022-10-17T00:44:00.362Z,101177.72
2022-10-17T00:46:44.659Z,101161.69
2022-10-17T00:52:58.858Z,101144.34
2022-10-17T00:55:45.625Z,101168.34
2022-10-17T00:58:52.372Z,101131.88
2022-10-17T01:02:02.310Z,101115.59
2022-10-17T01:05:47.869Z,101126.06
2022-10-17T01:08:30.676Z,101104.38
2022-10-17T01:12:11.958Z,101118.38
2022-10-17T01:19:07.412Z,101085.59
2022-10-17T01:23:04.495Z,101084.78
2022-10-17T01:26:12.161Z,101116.47
2022-10-17T01:32:41.674Z,101104.31
2022-10-17T01:35:44.563Z,101100.94
2022-10-17T01:38:34.534Z,101106.97
2022-10-17T01:41:41.388Z,101073.59
2022-10-17T01:44:47.244Z,101118.31
2022-10-17T01:49:32.039Z,101093.41
2022-10-17T01:51:25.686Z,101092.25
2022-10-17T01:55:33.578Z,101083.59
2022-10-17T01:59:04.177Z,101064.66
2022-10-17T02:02:40.752Z,101038.84
2022-10-17T02:05:34.694Z,101037.31
2022-10-17T02:16:14.313Z,101069.19
2022-10-17T02:20:15.077Z,101087.91
2022-10-17T02:26:46.127Z,101054.22
2022-10-17T02:30:06.009Z,101082.84
2022-10-17T03:36:17.641Z,100980.22
2022-10-17T03:47:42.778Z,100934.59
2022-10-17T03:50:46.074Z,100989.78
2022-10-17T03:53:29.441Z,100983.66
2022-10-17T03:57:49.764Z,100949.41
2022-10-17T04:00:07.743Z,100945.91
2022-10-17T04:03:31.768Z,100938.09
2022-10-17T04:09:53.627Z,100961.31
2022-10-17T04:12:25.724Z,100969.75
2022-10-17T04:14:58.014Z,100933.72
2022-10-17T04:17:35.771Z,100937.19
2022-10-17T04:20:09.911Z,100950.81
2022-10-17T04:22:37.830Z,100949.81
2022-10-17T04:25:10.071Z,100950.75
2022-10-17T04:27:43.744Z,100924.91
2022-10-17T04:30:23.660Z,100911.25
2022-10-17T04:32:53.534Z,100912.72
2022-10-17T04:35:22.659Z,100903.25
2022-10-17T04:37:57.647Z,100928.78
2022-10-17T04:40:50.366Z,100916.81
2022-10-17T04:43:20.905Z,100909.81
2022-10-17T04:45:54.764Z,100935.56
2022-10-17T04:48:22.382Z,100894.91
2022-10-17T04:51:03.808Z,100913.16
2022-10-17T04:53:44.105Z,100910.56
2022-10-17T04:56:17.820Z,100906.09
2022-10-17T04:58:46.491Z,100886.09
2022-10-17T05:01:34.385Z,100867.28
2022-10-17T05:04:11.724Z,100891.56
2022-10-17T05:06:42.019Z,100906.06
2022-10-17T05:09:25.214Z,100906.56
2022-10-17T05:11:55.249Z,100903.22
2022-10-17T05:14:24.187Z,100889.97
2022-10-17T05:17:02.539Z,100903.00
2022-10-17T05:19:42.949Z,100885.72
2022-10-17T05:22:17.069Z,100901.88
2022-10-17T05:24:47.343Z,100874.34
2022-10-17T05:27:42.625Z,100882.75
2022-10-17T05:30:18.237Z,100846.78
2022-10-17T05:32:46.053Z,100855.81
2022-10-17T05:35:23.560Z,100841.47
2022-10-17T05:38:01.049Z,100891.16
2022-10-17T05:41:03.022Z,100897.84
2022-10-17T05:43:56.138Z,100891.75
2022-10-17T05:46:42.178Z,100858.13
2022-10-17T05:49:31.888Z,100850.81
2022-10-17T05:52:08.384Z,100822.00
2022-10-17T05:54:50.486Z,100825.97
2022-10-17T05:57:18.127Z,100800.72
2022-10-17T05:59:54.512Z,100843.69
2022-10-17T06:02:24.694Z,100821.53
2022-10-17T06:14:39.566Z,100848.06
2022-10-17T06:20:55.542Z,100803.38
2022-10-17T06:24:08.155Z,100807.00
2022-10-17T06:26:59.426Z,100820.69
2022-10-17T06:29:51.511Z,100828.13
2022-10-17T06:33:21.040Z,100826.69
2022-10-17T06:36:53.657Z,100852.34
2022-10-17T06:39:52.304Z,100844.53
2022-10-17T06:42:54.677Z,100837.22
2022-10-17T06:46:24.406Z,100845.31
2022-10-17T06:49:43.977Z,100822.31
2022-10-17T06:52:42.503Z,100781.91
2022-10-17T06:55:43.428Z,100809.56
2022-10-17T07:02:39.652Z,100833.13
2022-10-17T07:24:44.169Z,100756.16
2022-10-17T07:42:09.480Z,100786.06
2022-10-17T07:46:52.527Z,100758.28
2022-10-17T07:49:20.182Z,100757.38
2022-10-17T08:04:29.404Z,100778.63
2022-10-17T08:07:31.282Z,100785.41
2022-10-17T10:39:44.265Z,100656.19
2022-10-17T12:11:02.752Z,100576.91
2022-10-17T12:30:37.509Z,100576.22
2022-10-17T14:38:01.829Z,100608.00
2022-10-17T14:42:21.301Z,100608.00
2022-10-17T15:56:18.235Z,100650.56
2022-10-17T16:25:45.221Z,100642.44
2022-10-17T17:20:24.867Z,100677.88
2022-10-17T17:27:18.528Z,100635.53
2022-10-17T17:34:18.378Z,100655.69
2022-10-17T17:37:04.439Z,100627.56
2022-10-17T17:46:49.471Z,100651.53
2022-10-17T17:51:01.564Z,100667.84
2022-10-17T17:53:45.562Z,100632.91
2022-10-17T17:56:43.867Z,100622.50
2022-10-17T17:59:38.022Z,100655.41
2022-10-17T18:02:08.158Z,100629.94
2022-10-17T18:04:42.261Z,100626.34
2022-10-17T18:07:12.881Z,100631.47
2022-10-17T18:10:55.666Z,100644.50
2022-10-17T18:13:23.432Z,100624.59
2022-10-17T18:16:03.223Z,100629.66
2022-10-17T18:18:38.734Z,100632.91
2022-10-17T18:21:09.400Z,100639.16
2022-10-17T18:23:48.009Z,100614.69
2022-10-17T18:26:16.321Z,100650.25
2022-10-17T18:28:46.886Z,100638.03
2022-10-17T18:31:22.385Z,100657.69
2022-10-17T18:33:53.250Z,100649.19
2022-10-17T18:36:28.539Z,100664.91
2022-10-17T18:38:56.813Z,100661.28
2022-10-17T18:41:26.963Z,100660.72
2022-10-17T18:43:57.141Z,100666.56
2022-10-17T18:46:31.371Z,100682.63
2022-10-17T18:49:10.205Z,100686.09
2022-10-17T18:51:38.010Z,100677.00
2022-10-17T18:54:17.397Z,100655.19
2022-10-17T18:56:50.315Z,100669.72
2022-10-17T19:00:39.880Z,100657.00
2022-10-17T19:03:09.361Z,100676.25
2022-10-17T19:06:01.089Z,100669.56
2022-10-17T19:08:42.745Z,100653.19
2022-10-17T19:11:53.980Z,100688.28
2022-10-17T19:14:45.631Z,100679.28
2022-10-17T19:20:29.633Z,100679.38
2022-10-17T19:23:00.697Z,100664.31
2022-10-17T19:25:35.936Z,100660.78
2022-10-17T19:28:15.624Z,100670.03
2022-10-17T19:30:53.990Z,100693.16
2022-10-17T19:33:34.179Z,100649.69
2022-10-17T19:36:35.617Z,100671.38
2022-10-17T19:39:13.317Z,100680.88
2022-10-17T19:41:52.848Z,100653.47
2022-10-17T19:44:28.880Z,100659.78
2022-10-17T19:47:09.256Z,100669.25
2022-10-17T19:52:34.007Z,100648.53
2022-10-17T19:55:26.760Z,100678.47
2022-10-17T19:57:59.494Z,100675.44
2022-10-17T20:00:48.253Z,100665.09
2022-10-17T20:03:30.715Z,100685.63
2022-10-17T20:06:04.153Z,100685.25
2022-10-17T20:08:33.564Z,100696.13
2022-10-17T20:11:28.594Z,100695.13
2022-10-17T20:14:07.207Z,100673.34
2022-10-17T20:16:48.493Z,100656.13
2022-10-17T20:19:23.674Z,100692.69
2022-10-17T20:22:02.057Z,100687.19
2022-10-17T20:24:35.649Z,100668.88
2022-10-17T20:28:45.267Z,100675.00
2022-10-17T20:30:16.990Z,100696.69
2022-10-17T20:32:47.975Z,100679.66
2022-10-17T20:35:32.232Z,100677.28
2022-10-17T20:38:06.335Z,100687.09
2022-10-17T20:40:52.421Z,100720.91
2022-10-17T20:43:31.424Z,100728.13
2022-10-17T20:46:35.081Z,100694.56
2022-10-17T20:56:19.279Z,100698.84
2022-10-17T20:59:03.018Z,100688.84
2022-10-17T21:01:35.839Z,100672.34
2022-10-17T21:07:15.130Z,100676.72
2022-10-17T21:09:43.106Z,100673.13
2022-10-17T21:12:25.832Z,100694.56
2022-10-17T21:15:13.088Z,100702.34
2022-10-17T21:17:46.846Z,100682.03
2022-10-17T21:20:23.027Z,100698.53
2022-10-17T21:23:03.879Z,100659.28
2022-10-17T21:25:48.692Z,100670.47
2022-10-17T21:28:27.574Z,100656.47
2022-10-17T21:31:36.714Z,100651.97
2022-10-17T21:34:28.286Z,100662.81
2022-10-17T21:37:09.137Z,100647.00
2022-10-17T21:39:44.085Z,100653.97
2022-10-17T21:42:24.544Z,100685.34
2022-10-17T21:45:15.886Z,100697.47
2022-10-17T21:48:23.452Z,100692.16
2022-10-17T21:51:09.508Z,100695.72
2022-10-17T21:53:49.964Z,100660.44
2022-10-17T21:56:46.028Z,100656.97
2022-10-17T21:59:43.818Z,100680.00
2022-10-17T22:02:37.903Z,100644.31
2022-10-17T22:05:17.926Z,100636.53
2022-10-17T22:07:45.762Z,100655.41
2022-10-17T22:10:26.260Z,100673.41
2022-10-17T22:12:59.002Z,100658.06
2022-10-17T22:15:41.518Z,100637.19
2022-10-17T22:18:12.198Z,100667.63
2022-10-17T22:21:13.328Z,100665.72
2022-10-17T22:23:54.940Z,100640.28
2022-10-17T22:27:00.636Z,100612.50
2022-10-17T22:29:36.466Z,100644.38
2022-10-17T22:32:12.511Z,100642.81
2022-10-17T22:34:42.831Z,100646.13
2022-10-17T22:37:26.229Z,100678.09
2022-10-17T22:39:58.974Z,100626.84
2022-10-17T22:42:35.933Z,100653.34
2022-10-17T22:45:07.612Z,100624.03
2022-10-17T22:48:01.586Z,100628.41
2022-10-17T22:51:00.103Z,100631.47
2022-10-17T22:53:42.813Z,100638.06
2022-10-17T22:56:22.312Z,100622.63
2022-10-17T22:58:53.045Z,100666.19
2022-10-17T23:01:54.449Z,100652.09
2022-10-17T23:04:24.408Z,100633.63
2022-10-17T23:07:14.099Z,100648.50
2022-10-17T23:10:00.950Z,100666.50
2022-10-17T23:12:34.495Z,100656.19
2022-10-17T23:15:13.102Z,100647.56
2022-10-17T23:17:53.264Z,100645.69
2022-10-17T23:20:34.246Z,100607.09
2022-10-17T23:23:12.048Z,100625.97
2022-10-17T23:25:52.714Z,100636.31
2022-10-17T23:28:46.228Z,100611.03
2022-10-17T23:31:23.093Z,100641.63
2022-10-17T23:34:04.281Z,100619.38
2022-10-17T23:36:38.338Z,100657.81
2022-10-17T23:39:12.144Z,100650.06
2022-10-17T23:41:42.780Z,100661.50
2022-10-17T23:44:34.578Z,100623.38
2022-10-17T23:47:24.026Z,100652.59
2022-10-17T23:50:05.247Z,100636.91
2022-10-17T23:52:35.013Z,100635.38
2022-10-17T23:55:10.871Z,100620.47
2022-10-17T23:57:48.993Z,100611.84
